Aérodrome :
LOGIN :

S'inscrire | Disclaimer

   EN    FR    IT 

 










Légende :    VFR   VFR Marginal   IFR   IFR Intensif   IFR Très Intensif
Visi : 
Plafond : 
>= 8 km
>= 3000ft
5 à 8 km
1000 à 3000 ft
1500m à 5 km
500 à 1000 ft
800 à 1500m
200 à 500 ft
< 800m
< 200 ft
Symboles :   Orages  Brouillard  Fortes neiges  Fortes précipitations  Vent > 20 kt
SIGMETs :   Divers  Orages  Givrage  Turbulence  Onde Orograph.  Cendres Volcan.






- Altitude de l'aérodrome : 297 ft
- Code IATA : UIP


LFRQ - Quimper Pluguffan

DERNIER METAR :
  • 091430Z AUTO 33014KT 300V360 9999 BKN034 OVC043 11/05 Q1025 NOSIG

METARs EXPIRÉS :
  • 091400Z AUTO 32015KT 9999 OVC035 11/05 Q1025 NOSIG
  • 091330Z AUTO 33014KT 300V360 9999 BKN036 OVC042 11/05 Q1024 NOSIG
  • 091300Z AUTO 33017KT 300V360 9999 BKN036 OVC045 11/05 Q1024 NOSIG
  • 091230Z AUTO 33012KT 300V360 9999 FEW031 BKN037 BKN044 11/06 Q1024 NOSIG
  • 091200Z AUTO 32016KT 9999 BKN036 BKN042 11/05 Q1023 NOSIG

TAF TAF LFRQ
Valide du 09 à 12h jusqu'au 10 à 12h UTC


091100Z 0912/1012 32020KT 9999 SCT030
BECMG 0918/0920 24008KT
BECMG 1007/1009 24015G30KT 4000 DZ OVC009



MET'MAP, la Météo Aéronautique d'un coup d'oeil ! - Copyright ORBIFLY Décembre 2007 - Disclaimer

ORBIFLY MET'MAP TEAM :

Programmation & Développement : Alexandra Zaïnal
Sur une idée originale de : Baudouin d'Aumeries
Assistance à la programmation : Marc-Olivier Méhu
Soutien technique & logistique : Manuel Goepfert

Contact : metmap@orbifly.com




SOURCES & CREDITS :

   NOAA